sensor_id;sensor_type;location;lat;lon;timestamp;temperature;humidity
6986;DHT22;3533;51.246;6.850;2023-02-20T00:00:55;19.00;43.30
6986;DHT22;3533;51.246;6.850;2023-02-20T00:03:21;19.00;42.60
6986;DHT22;3533;51.246;6.850;2023-02-20T00:05:47;19.00;42.70
6986;DHT22;3533;51.246;6.850;2023-02-20T00:08:12;19.00;42.60
6986;DHT22;3533;51.246;6.850;2023-02-20T00:10:38;19.00;42.60
6986;DHT22;3533;51.246;6.850;2023-02-20T00:13:04;19.00;42.50
6986;DHT22;3533;51.246;6.850;2023-02-20T00:15:30;19.00;42.60
6986;DHT22;3533;51.246;6.850;2023-02-20T00:17:55;19.00;42.60
6986;DHT22;3533;51.246;6.850;2023-02-20T00:20:23;19.00;42.60
6986;DHT22;3533;51.246;6.850;2023-02-20T00:22:50;19.00;42.60
6986;DHT22;3533;51.246;6.850;2023-02-20T00:25:18;19.00;42.50
6986;DHT22;3533;51.246;6.850;2023-02-20T00:27:44;19.00;42.50
6986;DHT22;3533;51.246;6.850;2023-02-20T00:30:19;19.00;42.50
6986;DHT22;3533;51.246;6.850;2023-02-20T00:32:49;19.00;42.50
6986;DHT22;3533;51.246;6.850;2023-02-20T00:35:15;19.00;42.50
6986;DHT22;3533;51.246;6.850;2023-02-20T00:37:41;19.00;42.50
6986;DHT22;3533;51.246;6.850;2023-02-20T00:40:07;19.00;42.50
6986;DHT22;3533;51.246;6.850;2023-02-20T00:42:33;19.00;42.50
6986;DHT22;3533;51.246;6.850;2023-02-20T00:44:59;19.00;42.50
6986;DHT22;3533;51.246;6.850;2023-02-20T00:47:24;19.00;42.50
6986;DHT22;3533;51.246;6.850;2023-02-20T00:49:50;19.00;42.50
6986;DHT22;3533;51.246;6.850;2023-02-20T00:52:15;19.00;42.50
6986;DHT22;3533;51.246;6.850;2023-02-20T00:54:41;19.00;42.50
6986;DHT22;3533;51.246;6.850;2023-02-20T00:57:06;19.00;42.50
6986;DHT22;3533;51.246;6.850;2023-02-20T00:59:32;19.00;42.50
6986;DHT22;3533;51.246;6.850;2023-02-20T01:01:57;19.00;42.50
6986;DHT22;3533;51.246;6.850;2023-02-20T01:04:23;19.00;42.50
6986;DHT22;3533;51.246;6.850;2023-02-20T01:06:49;19.00;42.50
6986;DHT22;3533;51.246;6.850;2023-02-20T01:09:15;19.00;42.50
6986;DHT22;3533;51.246;6.850;2023-02-20T01:11:42;19.00;42.50
6986;DHT22;3533;51.246;6.850;2023-02-20T01:14:07;19.00;42.50
6986;DHT22;3533;51.246;6.850;2023-02-20T01:16:33;19.00;42.50
6986;DHT22;3533;51.246;6.850;2023-02-20T01:18:58;19.00;42.50
6986;DHT22;3533;51.246;6.850;2023-02-20T01:21:24;19.00;42.50
6986;DHT22;3533;51.246;6.850;2023-02-20T01:23:49;19.00;42.50
6986;DHT22;3533;51.246;6.850;2023-02-20T01:26:15;19.00;43.20
6986;DHT22;3533;51.246;6.850;2023-02-20T01:28:44;19.00;42.50
6986;DHT22;3533;51.246;6.850;2023-02-20T01:31:10;19.00;42.40
6986;DHT22;3533;51.246;6.850;2023-02-20T01:33:39;19.00;42.50
6986;DHT22;3533;51.246;6.850;2023-02-20T01:36:06;19.00;42.50
6986;DHT22;3533;51.246;6.850;2023-02-20T01:38:31;19.00;42.60
6986;DHT22;3533;51.246;6.850;2023-02-20T01:40:57;19.00;42.50
6986;DHT22;3533;51.246;6.850;2023-02-20T01:43:22;19.00;42.50
6986;DHT22;3533;51.246;6.850;2023-02-20T01:45:48;19.00;42.50
6986;DHT22;3533;51.246;6.850;2023-02-20T01:48:24;19.00;42.50
6986;DHT22;3533;51.246;6.850;2023-02-20T01:50:57;19.00;42.40
6986;DHT22;3533;51.246;6.850;2023-02-20T01:53:26;19.00;42.50
6986;DHT22;3533;51.246;6.850;2023-02-20T01:56:02;19.00;42.50
6986;DHT22;3533;51.246;6.850;2023-02-20T01:58:44;19.00;42.50
6986;DHT22;3533;51.246;6.850;2023-02-20T02:01:11;19.00;42.40
6986;DHT22;3533;51.246;6.850;2023-02-20T02:03:41;19.00;42.50
6986;DHT22;3533;51.246;6.850;2023-02-20T02:06:08;19.00;42.50
6986;DHT22;3533;51.246;6.850;2023-02-20T02:08:36;19.00;42.50
6986;DHT22;3533;51.246;6.850;2023-02-20T02:11:05;19.00;42.50
6986;DHT22;3533;51.246;6.850;2023-02-20T02:13:32;19.00;42.50
6986;DHT22;3533;51.246;6.850;2023-02-20T02:30:02;19.00;42.50
6986;DHT22;3533;51.246;6.850;2023-02-20T02:38:38;19.00;42.50
6986;DHT22;3533;51.246;6.850;2023-02-20T02:41:06;19.00;42.50
6986;DHT22;3533;51.246;6.850;2023-02-20T02:46:38;19.00;42.50
6986;DHT22;3533;51.246;6.850;2023-02-20T02:49:19;19.00;42.50
6986;DHT22;3533;51.246;6.850;2023-02-20T02:51:46;19.00;42.50
6986;DHT22;3533;51.246;6.850;2023-02-20T02:54:17;19.00;42.60
6986;DHT22;3533;51.246;6.850;2023-02-20T02:56:45;19.00;42.60
6986;DHT22;3533;51.246;6.850;2023-02-20T02:59:28;19.00;42.50
6986;DHT22;3533;51.246;6.850;2023-02-20T03:02:04;19.00;42.50
6986;DHT22;3533;51.246;6.850;2023-02-20T03:04:33;19.00;42.50
6986;DHT22;3533;51.246;6.850;2023-02-20T03:07:09;19.00;42.60
6986;DHT22;3533;51.246;6.850;2023-02-20T03:09:38;19.00;42.50
6986;DHT22;3533;51.246;6.850;2023-02-20T03:12:07;19.00;42.60
6986;DHT22;3533;51.246;6.850;2023-02-20T03:14:40;19.00;42.60
6986;DHT22;3533;51.246;6.850;2023-02-20T03:17:31;19.00;42.50
6986;DHT22;3533;51.246;6.850;2023-02-20T03:20:03;19.00;42.60
6986;DHT22;3533;51.246;6.850;2023-02-20T03:22:54;19.00;42.50
6986;DHT22;3533;51.246;6.850;2023-02-20T03:25:26;19.00;42.50
6986;DHT22;3533;51.246;6.850;2023-02-20T03:27:54;18.90;42.50
6986;DHT22;3533;51.246;6.850;2023-02-20T03:33:23;18.90;42.40
6986;DHT22;3533;51.246;6.850;2023-02-20T03:36:11;18.90;42.40
6986;DHT22;3533;51.246;6.850;2023-02-20T03:39:04;18.90;42.60
6986;DHT22;3533;51.246;6.850;2023-02-20T03:41:49;18.90;42.50
6986;DHT22;3533;51.246;6.850;2023-02-20T03:44:35;18.90;42.50
6986;DHT22;3533;51.246;6.850;2023-02-20T03:47:04;18.90;42.50
6986;DHT22;3533;51.246;6.850;2023-02-20T03:49:34;18.90;42.50
6986;DHT22;3533;51.246;6.850;2023-02-20T03:52:01;18.90;42.50
6986;DHT22;3533;51.246;6.850;2023-02-20T03:54:28;18.90;42.50
6986;DHT22;3533;51.246;6.850;2023-02-20T03:56:58;19.00;42.60
6986;DHT22;3533;51.246;6.850;2023-02-20T03:59:35;18.90;42.50
6986;DHT22;3533;51.246;6.850;2023-02-20T04:02:07;18.90;42.50
6986;DHT22;3533;51.246;6.850;2023-02-20T04:04:41;18.90;42.50
6986;DHT22;3533;51.246;6.850;2023-02-20T04:07:13;18.90;42.50
6986;DHT22;3533;51.246;6.850;2023-02-20T04:09:43;18.90;42.50
6986;DHT22;3533;51.246;6.850;2023-02-20T04:12:27;18.90;42.50
6986;DHT22;3533;51.246;6.850;2023-02-20T04:14:56;18.90;42.50
6986;DHT22;3533;51.246;6.850;2023-02-20T04:17:31;18.90;42.50
6986;DHT22;3533;51.246;6.850;2023-02-20T04:19:57;18.90;42.60
6986;DHT22;3533;51.246;6.850;2023-02-20T04:22:37;18.90;42.50
6986;DHT22;3533;51.246;6.850;2023-02-20T04:25:21;18.90;42.50
6986;DHT22;3533;51.246;6.850;2023-02-20T04:27:49;19.00;42.50
6986;DHT22;3533;51.246;6.850;2023-02-20T04:30:15;19.00;42.60
6986;DHT22;3533;51.246;6.850;2023-02-20T04:32:41;18.90;42.50
6986;DHT22;3533;51.246;6.850;2023-02-20T04:35:08;18.90;42.50
6986;DHT22;3533;51.246;6.850;2023-02-20T04:37:36;19.00;42.60
6986;DHT22;3533;51.246;6.850;2023-02-20T04:40:02;19.00;42.60
6986;DHT22;3533;51.246;6.850;2023-02-20T04:42:27;19.00;42.60
6986;DHT22;3533;51.246;6.850;2023-02-20T04:44:53;19.00;42.60
6986;DHT22;3533;51.246;6.850;2023-02-20T04:47:18;18.90;42.50
6986;DHT22;3533;51.246;6.850;2023-02-20T04:49:44;19.00;42.50
6986;DHT22;3533;51.246;6.850;2023-02-20T04:52:10;19.00;42.50
6986;DHT22;3533;51.246;6.850;2023-02-20T04:54:35;19.00;42.50
6986;DHT22;3533;51.246;6.850;2023-02-20T04:57:01;19.00;42.50
6986;DHT22;3533;51.246;6.850;2023-02-20T04:59:26;19.00;42.40
6986;DHT22;3533;51.246;6.850;2023-02-20T05:01:52;19.00;42.40
6986;DHT22;3533;51.246;6.850;2023-02-20T05:04:20;19.00;42.40
6986;DHT22;3533;51.246;6.850;2023-02-20T05:06:49;19.00;42.40
6986;DHT22;3533;51.246;6.850;2023-02-20T05:09:15;19.00;42.40
6986;DHT22;3533;51.246;6.850;2023-02-20T05:11:41;19.00;42.30
6986;DHT22;3533;51.246;6.850;2023-02-20T05:14:07;19.00;42.40
6986;DHT22;3533;51.246;6.850;2023-02-20T05:16:33;19.00;42.30
6986;DHT22;3533;51.246;6.850;2023-02-20T05:18:59;19.00;42.30
6986;DHT22;3533;51.246;6.850;2023-02-20T05:21:26;19.00;42.30
6986;DHT22;3533;51.246;6.850;2023-02-20T05:24:11;19.00;42.30
6986;DHT22;3533;51.246;6.850;2023-02-20T05:26:37;19.00;42.30
6986;DHT22;3533;51.246;6.850;2023-02-20T05:29:03;19.10;42.40
6986;DHT22;3533;51.246;6.850;2023-02-20T05:31:29;19.00;42.30
6986;DHT22;3533;51.246;6.850;2023-02-20T05:33:54;19.00;43.10
6986;DHT22;3533;51.246;6.850;2023-02-20T05:36:20;19.00;42.30
6986;DHT22;3533;51.246;6.850;2023-02-20T05:38:45;19.10;42.30
6986;DHT22;3533;51.246;6.850;2023-02-20T05:41:17;19.00;42.30
6986;DHT22;3533;51.246;6.850;2023-02-20T05:43:43;19.10;42.30
6986;DHT22;3533;51.246;6.850;2023-02-20T05:46:09;19.10;42.40
6986;DHT22;3533;51.246;6.850;2023-02-20T05:48:34;19.10;42.30
6986;DHT22;3533;51.246;6.850;2023-02-20T05:51:00;19.10;42.30
6986;DHT22;3533;51.246;6.850;2023-02-20T05:53:30;19.10;42.30
6986;DHT22;3533;51.246;6.850;2023-02-20T05:55:56;19.10;42.40
6986;DHT22;3533;51.246;6.850;2023-02-20T05:58:22;19.10;42.30
6986;DHT22;3533;51.246;6.850;2023-02-20T06:00:48;19.10;42.30
6986;DHT22;3533;51.246;6.850;2023-02-20T06:03:14;19.10;42.40
6986;DHT22;3533;51.246;6.850;2023-02-20T06:05:40;19.10;42.30
6986;DHT22;3533;51.246;6.850;2023-02-20T06:08:06;19.10;42.40
6986;DHT22;3533;51.246;6.850;2023-02-20T06:10:32;19.10;43.10
6986;DHT22;3533;51.246;6.850;2023-02-20T06:12:57;19.10;42.30
6986;DHT22;3533;51.246;6.850;2023-02-20T06:15:23;19.10;42.30
6986;DHT22;3533;51.246;6.850;2023-02-20T06:17:49;19.10;42.40
6986;DHT22;3533;51.246;6.850;2023-02-20T06:20:14;19.10;42.30
6986;DHT22;3533;51.246;6.850;2023-02-20T06:22:40;19.10;42.40
6986;DHT22;3533;51.246;6.850;2023-02-20T06:25:06;19.10;42.40
6986;DHT22;3533;51.246;6.850;2023-02-20T06:27:32;19.10;42.40
6986;DHT22;3533;51.246;6.850;2023-02-20T06:29:57;19.10;42.40
6986;DHT22;3533;51.246;6.850;2023-02-20T06:32:23;19.10;42.40
6986;DHT22;3533;51.246;6.850;2023-02-20T06:34:49;19.10;42.40
6986;DHT22;3533;51.246;6.850;2023-02-20T06:37:14;19.10;42.40
6986;DHT22;3533;51.246;6.850;2023-02-20T06:39:40;19.10;42.40
6986;DHT22;3533;51.246;6.850;2023-02-20T06:42:07;19.10;42.40
6986;DHT22;3533;51.246;6.850;2023-02-20T06:44:32;19.10;42.40
6986;DHT22;3533;51.246;6.850;2023-02-20T06:46:59;19.10;42.40
6986;DHT22;3533;51.246;6.850;2023-02-20T06:49:24;19.10;42.40
6986;DHT22;3533;51.246;6.850;2023-02-20T06:51:54;19.10;42.40
6986;DHT22;3533;51.246;6.850;2023-02-20T06:54:19;19.10;42.30
6986;DHT22;3533;51.246;6.850;2023-02-20T06:56:46;19.10;42.30
6986;DHT22;3533;51.246;6.850;2023-02-20T06:59:13;19.10;42.30
6986;DHT22;3533;51.246;6.850;2023-02-20T07:01:41;19.10;42.20
6986;DHT22;3533;51.246;6.850;2023-02-20T07:04:14;19.10;42.30
6986;DHT22;3533;51.246;6.850;2023-02-20T07:06:40;19.10;42.30
6986;DHT22;3533;51.246;6.850;2023-02-20T07:09:06;19.20;42.30
6986;DHT22;3533;51.246;6.850;2023-02-20T07:11:32;19.20;42.20
6986;DHT22;3533;51.246;6.850;2023-02-20T07:13:58;19.20;42.20
6986;DHT22;3533;51.246;6.850;2023-02-20T07:16:23;19.20;42.20
6986;DHT22;3533;51.246;6.850;2023-02-20T07:18:49;19.20;42.20
6986;DHT22;3533;51.246;6.850;2023-02-20T07:21:15;19.20;42.10
6986;DHT22;3533;51.246;6.850;2023-02-20T07:23:41;19.20;42.10
6986;DHT22;3533;51.246;6.850;2023-02-20T07:26:19;19.20;42.10
6986;DHT22;3533;51.246;6.850;2023-02-20T07:28:45;19.20;42.10
6986;DHT22;3533;51.246;6.850;2023-02-20T07:31:11;19.20;42.10
6986;DHT22;3533;51.246;6.850;2023-02-20T07:33:37;19.20;42.20
6986;DHT22;3533;51.246;6.850;2023-02-20T07:36:03;19.20;42.10
6986;DHT22;3533;51.246;6.850;2023-02-20T07:38:28;19.20;42.10
6986;DHT22;3533;51.246;6.850;2023-02-20T07:40:54;19.20;42.10
6986;DHT22;3533;51.246;6.850;2023-02-20T07:43:19;19.20;42.10
6986;DHT22;3533;51.246;6.850;2023-02-20T07:45:45;19.20;42.10
6986;DHT22;3533;51.246;6.850;2023-02-20T07:48:11;19.30;42.10
6986;DHT22;3533;51.246;6.850;2023-02-20T07:50:36;19.30;42.00
6986;DHT22;3533;51.246;6.850;2023-02-20T07:53:02;19.30;41.90
6986;DHT22;3533;51.246;6.850;2023-02-20T07:55:27;19.30;41.90
6986;DHT22;3533;51.246;6.850;2023-02-20T07:57:53;19.30;41.80
6986;DHT22;3533;51.246;6.850;2023-02-20T08:00:23;19.40;41.80
6986;DHT22;3533;51.246;6.850;2023-02-20T08:02:49;19.30;41.90
6986;DHT22;3533;51.246;6.850;2023-02-20T08:05:14;19.40;41.90
6986;DHT22;3533;51.246;6.850;2023-02-20T08:07:48;19.40;41.90
6986;DHT22;3533;51.246;6.850;2023-02-20T08:10:16;19.30;41.80
6986;DHT22;3533;51.246;6.850;2023-02-20T08:12:42;19.40;41.90
6986;DHT22;3533;51.246;6.850;2023-02-20T08:15:08;19.40;41.80
6986;DHT22;3533;51.246;6.850;2023-02-20T08:17:37;19.40;41.90
6986;DHT22;3533;51.246;6.850;2023-02-20T08:20:04;19.40;41.90
6986;DHT22;3533;51.246;6.850;2023-02-20T08:22:29;19.30;41.80
6986;DHT22;3533;51.246;6.850;2023-02-20T08:24:55;19.30;41.80
6986;DHT22;3533;51.246;6.850;2023-02-20T08:27:20;19.30;41.80
6986;DHT22;3533;51.246;6.850;2023-02-20T08:29:46;19.30;41.80
6986;DHT22;3533;51.246;6.850;2023-02-20T08:32:12;19.30;42.60
6986;DHT22;3533;51.246;6.850;2023-02-20T08:34:37;19.30;41.80
6986;DHT22;3533;51.246;6.850;2023-02-20T08:37:03;19.30;41.90
6986;DHT22;3533;51.246;6.850;2023-02-20T08:39:28;19.30;41.90
6986;DHT22;3533;51.246;6.850;2023-02-20T08:41:54;19.30;41.90
6986;DHT22;3533;51.246;6.850;2023-02-20T08:44:19;19.30;41.90
6986;DHT22;3533;51.246;6.850;2023-02-20T08:46:49;19.30;41.90
6986;DHT22;3533;51.246;6.850;2023-02-20T08:49:15;19.30;41.90
6986;DHT22;3533;51.246;6.850;2023-02-20T08:51:46;19.30;42.00
6986;DHT22;3533;51.246;6.850;2023-02-20T08:54:13;19.30;41.90
6986;DHT22;3533;51.246;6.850;2023-02-20T08:56:40;19.30;41.90
6986;DHT22;3533;51.246;6.850;2023-02-20T08:59:05;19.30;41.90
6986;DHT22;3533;51.246;6.850;2023-02-20T09:01:31;19.30;41.90
6986;DHT22;3533;51.246;6.850;2023-02-20T09:03:56;19.30;41.90
6986;DHT22;3533;51.246;6.850;2023-02-20T09:06:22;19.30;41.90
6986;DHT22;3533;51.246;6.850;2023-02-20T09:08:50;19.30;41.90
6986;DHT22;3533;51.246;6.850;2023-02-20T09:11:16;19.30;41.80
6986;DHT22;3533;51.246;6.850;2023-02-20T09:13:46;19.30;41.90
6986;DHT22;3533;51.246;6.850;2023-02-20T09:16:14;19.30;41.90
6986;DHT22;3533;51.246;6.850;2023-02-20T09:18:40;19.30;41.90
6986;DHT22;3533;51.246;6.850;2023-02-20T09:21:10;19.30;41.90
6986;DHT22;3533;51.246;6.850;2023-02-20T09:23:36;19.30;41.90
6986;DHT22;3533;51.246;6.850;2023-02-20T09:26:03;19.30;42.30
6986;DHT22;3533;51.246;6.850;2023-02-20T09:28:28;19.20;41.80
6986;DHT22;3533;51.246;6.850;2023-02-20T09:30:54;19.30;41.90
6986;DHT22;3533;51.246;6.850;2023-02-20T09:33:22;19.30;41.90
6986;DHT22;3533;51.246;6.850;2023-02-20T09:35:47;19.30;41.90
6986;DHT22;3533;51.246;6.850;2023-02-20T09:38:16;19.30;41.90
6986;DHT22;3533;51.246;6.850;2023-02-20T09:40:43;19.30;41.90
6986;DHT22;3533;51.246;6.850;2023-02-20T09:43:37;19.20;41.80
6986;DHT22;3533;51.246;6.850;2023-02-20T09:46:19;19.20;41.80
6986;DHT22;3533;51.246;6.850;2023-02-20T09:51:26;19.20;41.80
6986;DHT22;3533;51.246;6.850;2023-02-20T09:56:31;19.20;42.50
6986;DHT22;3533;51.246;6.850;2023-02-20T09:59:05;19.20;41.60
6986;DHT22;3533;51.246;6.850;2023-02-20T10:01:33;19.20;41.60
6986;DHT22;3533;51.246;6.850;2023-02-20T10:04:13;19.20;41.60
6986;DHT22;3533;51.246;6.850;2023-02-20T10:06:40;19.20;41.60
6986;DHT22;3533;51.246;6.850;2023-02-20T10:09:10;19.10;41.50
6986;DHT22;3533;51.246;6.850;2023-02-20T10:11:55;19.20;41.50
6986;DHT22;3533;51.246;6.850;2023-02-20T10:19:31;19.10;41.30
6986;DHT22;3533;51.246;6.850;2023-02-20T10:22:10;19.20;41.40
6986;DHT22;3533;51.246;6.850;2023-02-20T10:25:00;19.10;41.30
6986;DHT22;3533;51.246;6.850;2023-02-20T10:27:41;19.10;41.30
6986;DHT22;3533;51.246;6.850;2023-02-20T10:30:19;19.10;41.30
6986;DHT22;3533;51.246;6.850;2023-02-20T10:32:56;19.10;41.20
6986;DHT22;3533;51.246;6.850;2023-02-20T10:35:25;19.10;42.00
6986;DHT22;3533;51.246;6.850;2023-02-20T10:37:54;19.10;41.50
6986;DHT22;3533;51.246;6.850;2023-02-20T10:40:48;19.10;41.20
6986;DHT22;3533;51.246;6.850;2023-02-20T10:43:31;19.10;41.20
6986;DHT22;3533;51.246;6.850;2023-02-20T10:46:11;19.10;41.20
6986;DHT22;3533;51.246;6.850;2023-02-20T10:48:39;19.10;41.20
6986;DHT22;3533;51.246;6.850;2023-02-20T10:51:17;19.10;41.20
6986;DHT22;3533;51.246;6.850;2023-02-20T10:53:54;19.10;41.20
6986;DHT22;3533;51.246;6.850;2023-02-20T10:56:36;19.10;41.30
6986;DHT22;3533;51.246;6.850;2023-02-20T10:59:15;19.10;41.30
6986;DHT22;3533;51.246;6.850;2023-02-20T11:01:45;19.10;42.10
6986;DHT22;3533;51.246;6.850;2023-02-20T11:04:25;19.10;41.30
6986;DHT22;3533;51.246;6.850;2023-02-20T11:06:56;19.10;41.30
6986;DHT22;3533;51.246;6.850;2023-02-20T11:09:22;19.10;41.20
6986;DHT22;3533;51.246;6.850;2023-02-20T11:11:52;19.10;41.20
6986;DHT22;3533;51.246;6.850;2023-02-20T11:14:33;19.10;41.60
6986;DHT22;3533;51.246;6.850;2023-02-20T11:17:20;19.10;41.30
6986;DHT22;3533;51.246;6.850;2023-02-20T11:19:54;19.10;41.30
6986;DHT22;3533;51.246;6.850;2023-02-20T11:25:26;19.10;41.20
6986;DHT22;3533;51.246;6.850;2023-02-20T11:27:59;19.10;41.20
6986;DHT22;3533;51.246;6.850;2023-02-20T11:30:34;19.10;41.20
6986;DHT22;3533;51.246;6.850;2023-02-20T11:33:20;19.10;41.20
6986;DHT22;3533;51.246;6.850;2023-02-20T11:35:52;19.10;41.20
6986;DHT22;3533;51.246;6.850;2023-02-20T11:43:41;19.10;41.20
6986;DHT22;3533;51.246;6.850;2023-02-20T11:49:06;19.10;41.60
6986;DHT22;3533;51.246;6.850;2023-02-20T11:51:39;19.10;41.20
6986;DHT22;3533;51.246;6.850;2023-02-20T11:54:21;19.10;41.30
6986;DHT22;3533;51.246;6.850;2023-02-20T11:57:19;19.10;41.20
6986;DHT22;3533;51.246;6.850;2023-02-20T11:59:48;19.10;41.30
6986;DHT22;3533;51.246;6.850;2023-02-20T12:07:35;19.10;41.30
6986;DHT22;3533;51.246;6.850;2023-02-20T12:12:38;19.10;42.00
6986;DHT22;3533;51.246;6.850;2023-02-20T12:15:12;19.00;41.10
6986;DHT22;3533;51.246;6.850;2023-02-20T12:20:30;19.00;41.10
6986;DHT22;3533;51.246;6.850;2023-02-20T12:23:09;19.00;41.20
6986;DHT22;3533;51.246;6.850;2023-02-20T12:25:58;19.00;41.20
6986;DHT22;3533;51.246;6.850;2023-02-20T12:33:59;19.00;41.20
6986;DHT22;3533;51.246;6.850;2023-02-20T12:42:17;19.00;41.20
6986;DHT22;3533;51.246;6.850;2023-02-20T12:47:31;19.00;41.20
6986;DHT22;3533;51.246;6.850;2023-02-20T12:50:10;19.00;41.20
6986;DHT22;3533;51.246;6.850;2023-02-20T12:52:59;19.00;41.20
6986;DHT22;3533;51.246;6.850;2023-02-20T13:01:09;19.00;41.20
6986;DHT22;3533;51.246;6.850;2023-02-20T13:06:06;19.00;41.20
6986;DHT22;3533;51.246;6.850;2023-02-20T13:08:42;19.00;41.20
6986;DHT22;3533;51.246;6.850;2023-02-20T13:11:18;19.00;41.10
6986;DHT22;3533;51.246;6.850;2023-02-20T13:14:06;19.00;41.10
6986;DHT22;3533;51.246;6.850;2023-02-20T13:19:27;19.10;41.20
6986;DHT22;3533;51.246;6.850;2023-02-20T13:21:55;19.10;41.20
6986;DHT22;3533;51.246;6.850;2023-02-20T13:26:49;19.10;41.30
6986;DHT22;3533;51.246;6.850;2023-02-20T13:29:27;19.10;41.30
6986;DHT22;3533;51.246;6.850;2023-02-20T13:34:38;19.10;41.30
6986;DHT22;3533;51.246;6.850;2023-02-20T13:37:25;19.10;41.30
6986;DHT22;3533;51.246;6.850;2023-02-20T13:39:50;19.10;41.30
6986;DHT22;3533;51.246;6.850;2023-02-20T13:42:30;19.10;41.30
6986;DHT22;3533;51.246;6.850;2023-02-20T13:44:56;19.10;41.30
6986;DHT22;3533;51.246;6.850;2023-02-20T13:52:41;19.10;41.40
6986;DHT22;3533;51.246;6.850;2023-02-20T13:58:11;19.10;41.40
6986;DHT22;3533;51.246;6.850;2023-02-20T14:03:25;19.10;41.40
6986;DHT22;3533;51.246;6.850;2023-02-20T14:08:32;19.10;41.40
6986;DHT22;3533;51.246;6.850;2023-02-20T14:11:10;19.10;41.50
6986;DHT22;3533;51.246;6.850;2023-02-20T14:13:39;19.10;41.40
6986;DHT22;3533;51.246;6.850;2023-02-20T14:18:48;19.10;41.50
6986;DHT22;3533;51.246;6.850;2023-02-20T14:21:17;19.10;41.50
6986;DHT22;3533;51.246;6.850;2023-02-20T14:23:44;19.10;41.50
6986;DHT22;3533;51.246;6.850;2023-02-20T14:26:29;19.10;41.50
6986;DHT22;3533;51.246;6.850;2023-02-20T14:28:56;19.10;41.50
6986;DHT22;3533;51.246;6.850;2023-02-20T14:31:30;19.10;41.50
6986;DHT22;3533;51.246;6.850;2023-02-20T14:34:06;19.10;41.50
6986;DHT22;3533;51.246;6.850;2023-02-20T14:37:01;19.10;41.50
6986;DHT22;3533;51.246;6.850;2023-02-20T14:42:21;19.10;41.50
6986;DHT22;3533;51.246;6.850;2023-02-20T14:44:49;19.10;41.50
6986;DHT22;3533;51.246;6.850;2023-02-20T14:47:16;19.00;41.40
6986;DHT22;3533;51.246;6.850;2023-02-20T14:49:42;19.10;41.50
6986;DHT22;3533;51.246;6.850;2023-02-20T14:54:34;19.00;41.50
6986;DHT22;3533;51.246;6.850;2023-02-20T14:57:00;19.00;41.50
6986;DHT22;3533;51.246;6.850;2023-02-20T14:59:30;19.00;41.40
6986;DHT22;3533;51.246;6.850;2023-02-20T15:02:01;19.00;42.10
6986;DHT22;3533;51.246;6.850;2023-02-20T15:04:28;19.00;41.30
6986;DHT22;3533;51.246;6.850;2023-02-20T15:07:01;19.00;41.40
6986;DHT22;3533;51.246;6.850;2023-02-20T15:09:36;19.00;41.30
6986;DHT22;3533;51.246;6.850;2023-02-20T15:12:02;19.00;41.30
6986;DHT22;3533;51.246;6.850;2023-02-20T15:14:31;19.00;41.30
6986;DHT22;3533;51.246;6.850;2023-02-20T15:17:29;19.00;41.40
6986;DHT22;3533;51.246;6.850;2023-02-20T15:19:54;19.00;41.30
6986;DHT22;3533;51.246;6.850;2023-02-20T15:24:47;19.00;41.30
6986;DHT22;3533;51.246;6.850;2023-02-20T15:27:21;19.00;41.30
6986;DHT22;3533;51.246;6.850;2023-02-20T15:30:14;19.00;41.50
6986;DHT22;3533;51.246;6.850;2023-02-20T15:32:42;19.00;41.40
6986;DHT22;3533;51.246;6.850;2023-02-20T15:35:20;19.00;41.40
6986;DHT22;3533;51.246;6.850;2023-02-20T15:37:47;19.00;41.40
6986;DHT22;3533;51.246;6.850;2023-02-20T15:42:43;19.00;41.40
6986;DHT22;3533;51.246;6.850;2023-02-20T15:45:11;19.00;41.40
6986;DHT22;3533;51.246;6.850;2023-02-20T15:47:37;19.00;41.50
6986;DHT22;3533;51.246;6.850;2023-02-20T15:50:03;19.00;41.40
6986;DHT22;3533;51.246;6.850;2023-02-20T15:52:29;19.00;41.50
6986;DHT22;3533;51.246;6.850;2023-02-20T15:54:55;19.00;41.40
6986;DHT22;3533;51.246;6.850;2023-02-20T15:57:21;19.00;41.40
6986;DHT22;3533;51.246;6.850;2023-02-20T15:59:49;19.00;41.30
6986;DHT22;3533;51.246;6.850;2023-02-20T16:02:17;19.00;41.50
6986;DHT22;3533;51.246;6.850;2023-02-20T16:04:47;19.00;41.40
6986;DHT22;3533;51.246;6.850;2023-02-20T16:07:14;19.00;41.40
6986;DHT22;3533;51.246;6.850;2023-02-20T16:09:40;19.00;41.50
6986;DHT22;3533;51.246;6.850;2023-02-20T16:12:06;19.00;41.40
6986;DHT22;3533;51.246;6.850;2023-02-20T16:14:32;19.00;41.50
6986;DHT22;3533;51.246;6.850;2023-02-20T16:16:57;19.00;41.40
6986;DHT22;3533;51.246;6.850;2023-02-20T16:19:23;19.00;41.40
6986;DHT22;3533;51.246;6.850;2023-02-20T16:21:50;19.00;41.40
6986;DHT22;3533;51.246;6.850;2023-02-20T16:24:15;19.00;41.50
6986;DHT22;3533;51.246;6.850;2023-02-20T16:26:43;19.00;41.30
6986;DHT22;3533;51.246;6.850;2023-02-20T16:29:19;19.00;41.40
6986;DHT22;3533;51.246;6.850;2023-02-20T16:34:24;19.00;41.40
6986;DHT22;3533;51.246;6.850;2023-02-20T16:36:51;19.00;41.50
6986;DHT22;3533;51.246;6.850;2023-02-20T16:39:17;19.00;41.30
6986;DHT22;3533;51.246;6.850;2023-02-20T16:41:43;19.00;41.40
6986;DHT22;3533;51.246;6.850;2023-02-20T16:44:13;19.00;41.40
6986;DHT22;3533;51.246;6.850;2023-02-20T16:46:40;19.00;41.30
6986;DHT22;3533;51.246;6.850;2023-02-20T16:49:05;19.00;41.40
6986;DHT22;3533;51.246;6.850;2023-02-20T16:51:31;19.00;41.40
6986;DHT22;3533;51.246;6.850;2023-02-20T16:53:57;19.00;41.30
6986;DHT22;3533;51.246;6.850;2023-02-20T16:56:22;19.00;41.40
6986;DHT22;3533;51.246;6.850;2023-02-20T16:58:48;19.00;41.30
6986;DHT22;3533;51.246;6.850;2023-02-20T17:01:13;19.00;41.30
6986;DHT22;3533;51.246;6.850;2023-02-20T17:03:39;19.00;41.30
6986;DHT22;3533;51.246;6.850;2023-02-20T17:06:05;19.00;41.30
6986;DHT22;3533;51.246;6.850;2023-02-20T17:08:30;19.00;41.30
6986;DHT22;3533;51.246;6.850;2023-02-20T17:10:56;19.00;41.30
6986;DHT22;3533;51.246;6.850;2023-02-20T17:13:21;19.00;41.30
6986;DHT22;3533;51.246;6.850;2023-02-20T17:15:47;19.00;41.30
6986;DHT22;3533;51.246;6.850;2023-02-20T17:18:13;19.00;41.30
6986;DHT22;3533;51.246;6.850;2023-02-20T17:20:38;19.00;41.30
6986;DHT22;3533;51.246;6.850;2023-02-20T17:23:04;19.00;41.30
6986;DHT22;3533;51.246;6.850;2023-02-20T17:25:31;19.00;41.30
6986;DHT22;3533;51.246;6.850;2023-02-20T17:27:57;19.00;41.30
6986;DHT22;3533;51.246;6.850;2023-02-20T17:30:24;19.00;41.30
6986;DHT22;3533;51.246;6.850;2023-02-20T17:32:50;19.00;41.30
6986;DHT22;3533;51.246;6.850;2023-02-20T17:35:16;19.00;41.30
6986;DHT22;3533;51.246;6.850;2023-02-20T17:37:42;19.00;41.30
6986;DHT22;3533;51.246;6.850;2023-02-20T17:40:08;19.00;41.30
6986;DHT22;3533;51.246;6.850;2023-02-20T17:42:34;19.00;41.20
6986;DHT22;3533;51.246;6.850;2023-02-20T17:45:00;19.00;41.30
6986;DHT22;3533;51.246;6.850;2023-02-20T17:47:26;19.00;41.30
6986;DHT22;3533;51.246;6.850;2023-02-20T17:49:53;19.00;41.20
6986;DHT22;3533;51.246;6.850;2023-02-20T17:52:21;19.00;41.30
6986;DHT22;3533;51.246;6.850;2023-02-20T17:54:48;19.00;41.30
6986;DHT22;3533;51.246;6.850;2023-02-20T17:57:16;19.00;41.20
6986;DHT22;3533;51.246;6.850;2023-02-20T17:59:44;19.00;41.20
6986;DHT22;3533;51.246;6.850;2023-02-20T18:02:11;19.00;41.20
6986;DHT22;3533;51.246;6.850;2023-02-20T18:04:37;19.00;41.20
6986;DHT22;3533;51.246;6.850;2023-02-20T18:07:04;19.00;41.30
6986;DHT22;3533;51.246;6.850;2023-02-20T18:09:29;19.00;41.30
6986;DHT22;3533;51.246;6.850;2023-02-20T18:11:55;19.00;41.30
6986;DHT22;3533;51.246;6.850;2023-02-20T18:14:20;19.00;41.30